createdAt,value
2023-04-10T00:01:22.503Z,100.00
2023-04-10T00:04:05.349Z,100.00
2023-04-10T00:06:35.386Z,100.00
2023-04-10T00:09:03.856Z,100.00
2023-04-10T00:11:32.398Z,100.00
2023-04-10T00:14:02.085Z,100.00
2023-04-10T00:16:32.709Z,100.00
2023-04-10T00:19:01.707Z,100.00
2023-04-10T00:21:29.772Z,100.00
2023-04-10T00:24:01.607Z,100.00
2023-04-10T00:26:31.387Z,100.00
2023-04-10T00:29:00.740Z,100.00
2023-04-10T00:31:49.134Z,100.00
2023-04-10T00:34:17.938Z,100.00
2023-04-10T00:36:47.300Z,100.00
2023-04-10T00:39:16.631Z,100.00
2023-04-10T00:41:49.155Z,100.00
2023-04-10T00:44:17.725Z,100.00
2023-04-10T00:46:45.790Z,100.00
2023-04-10T00:49:14.843Z,100.00
2023-04-10T00:51:43.778Z,100.00
2023-04-10T00:54:13.516Z,100.00
2023-04-10T00:56:41.793Z,100.00
2023-04-10T00:59:10.465Z,100.00
2023-04-10T01:01:41.391Z,100.00
2023-04-10T01:04:15.259Z,100.00
2023-04-10T01:07:00.689Z,100.00
2023-04-10T01:09:41.843Z,100.00
2023-04-10T01:12:26.234Z,100.00
2023-04-10T01:15:05.294Z,100.00
2023-04-10T01:17:40.627Z,100.00
2023-04-10T01:20:26.293Z,100.00
2023-04-10T01:23:33.165Z,100.00
2023-04-10T01:26:03.394Z,100.00
2023-04-10T01:29:02.407Z,100.00
2023-04-10T01:31:42.373Z,100.00
2023-04-10T01:34:16.672Z,100.00
2023-04-10T01:36:49.682Z,100.00
2023-04-10T01:39:21.664Z,100.00
2023-04-10T01:41:52.776Z,100.00
2023-04-10T01:44:28.408Z,100.00
2023-04-10T01:46:56.639Z,100.00
2023-04-10T01:49:28.680Z,100.00
2023-04-10T01:52:06.101Z,100.00
2023-04-10T01:54:42.340Z,100.00
2023-04-10T01:57:16.865Z,100.00
2023-04-10T02:00:00.323Z,100.00
2023-04-10T02:02:35.170Z,100.00
2023-04-10T02:05:11.318Z,100.00
2023-04-10T02:07:52.352Z,100.00
2023-04-10T02:10:52.713Z,100.00
2023-04-10T02:13:23.883Z,100.00
2023-04-10T02:15:56.366Z,100.00
2023-04-10T02:18:28.853Z,100.00
2023-04-10T02:21:00.389Z,100.00
2023-04-10T02:23:34.750Z,100.00
2023-04-10T02:26:09.087Z,100.00
2023-04-10T02:28:42.369Z,100.00
2023-04-10T02:31:13.225Z,100.00
2023-04-10T02:33:45.471Z,100.00
2023-04-10T02:36:16.034Z,100.00
2023-04-10T02:38:48.556Z,100.00
2023-04-10T02:41:20.915Z,100.00
2023-04-10T02:43:51.515Z,100.00
2023-04-10T02:46:27.083Z,100.00
2023-04-10T02:57:06.723Z,100.00
2023-04-10T02:59:36.438Z,100.00
2023-04-10T03:02:05.515Z,100.00
2023-04-10T03:04:35.580Z,100.00
2023-04-10T03:07:06.336Z,100.00
2023-04-10T03:09:37.592Z,100.00
2023-04-10T03:12:05.797Z,100.00
2023-04-10T03:14:35.722Z,100.00
2023-04-10T03:17:04.314Z,100.00
2023-04-10T03:19:32.829Z,100.00
2023-04-10T03:22:02.464Z,100.00
2023-04-10T03:24:31.127Z,100.00
2023-04-10T03:27:00.465Z,100.00
2023-04-10T03:29:29.778Z,100.00
2023-04-10T03:31:57.933Z,100.00
2023-04-10T03:34:27.251Z,100.00
2023-04-10T03:36:55.283Z,100.00
2023-04-10T03:39:24.807Z,100.00
2023-04-10T03:41:53.631Z,100.00
2023-04-10T03:44:25.429Z,100.00
2023-04-10T03:46:56.347Z,100.00
2023-04-10T03:49:25.000Z,100.00
2023-04-10T03:51:56.923Z,100.00
2023-04-10T03:54:25.367Z,100.00
2023-04-10T03:56:53.458Z,100.00
2023-04-10T03:59:28.376Z,100.00
2023-04-10T04:02:02.728Z,100.00
2023-04-10T04:04:32.369Z,100.00
2023-04-10T04:07:15.418Z,100.00
2023-04-10T04:10:02.164Z,100.00
2023-04-10T04:12:59.849Z,100.00
2023-04-10T04:15:44.811Z,100.00
2023-04-10T04:18:19.168Z,100.00
2023-04-10T04:20:52.240Z,100.00
2023-04-10T04:23:40.287Z,100.00
2023-04-10T04:26:31.183Z,100.00
2023-04-10T04:29:15.531Z,100.00
2023-04-10T04:32:08.945Z,100.00
2023-04-10T04:35:17.140Z,100.00
2023-04-10T04:38:08.776Z,100.00
2023-04-10T04:40:48.818Z,100.00
2023-04-10T04:43:25.436Z,100.00
2023-04-10T04:46:14.012Z,100.00
2023-04-10T04:49:12.296Z,100.00
2023-04-10T04:51:56.473Z,100.00
2023-04-10T04:54:50.294Z,100.00
2023-04-10T04:57:39.275Z,100.00
2023-04-10T05:00:24.016Z,100.00
2023-04-10T05:03:09.320Z,100.00
2023-04-10T05:05:56.738Z,100.00
2023-04-10T05:08:42.827Z,100.00
2023-04-10T05:11:42.244Z,100.00
2023-04-10T05:14:33.158Z,100.00
2023-04-10T05:17:11.277Z,100.00
2023-04-10T05:19:52.736Z,100.00
2023-04-10T05:22:45.483Z,100.00
2023-04-10T05:25:34.529Z,100.00
2023-04-10T05:28:15.872Z,100.00
2023-04-10T05:31:04.302Z,100.00
2023-04-10T05:33:50.475Z,100.00
2023-04-10T05:36:40.498Z,100.00
2023-04-10T05:39:19.246Z,100.00
2023-04-10T05:42:24.836Z,100.00
2023-04-10T05:45:25.676Z,100.00
2023-04-10T05:48:26.090Z,100.00
2023-04-10T05:51:17.755Z,100.00
2023-04-10T05:54:04.938Z,100.00
2023-04-10T05:56:48.828Z,100.00
2023-04-10T05:59:37.716Z,100.00
2023-04-10T06:02:36.710Z,100.00
2023-04-10T06:05:07.940Z,100.00
2023-04-10T06:07:37.909Z,100.00
2023-04-10T06:10:07.675Z,100.00
2023-04-10T06:12:37.114Z,100.00
2023-04-10T06:15:11.546Z,100.00
2023-04-10T06:17:44.336Z,100.00
2023-04-10T06:20:12.695Z,100.00
2023-04-10T06:22:41.978Z,100.00
2023-04-10T06:25:11.334Z,100.00
2023-04-10T06:27:40.942Z,100.00
2023-04-10T06:30:11.315Z,100.00
2023-04-10T06:32:40.179Z,100.00
2023-04-10T06:35:09.143Z,100.00
2023-04-10T06:37:39.876Z,100.00
2023-04-10T06:40:08.905Z,100.00
2023-04-10T06:42:37.124Z,100.00
2023-04-10T06:45:14.418Z,100.00
2023-04-10T06:47:42.425Z,100.00
2023-04-10T06:50:15.542Z,100.00
2023-04-10T06:52:44.474Z,100.00
2023-04-10T06:55:15.468Z,100.00
2023-04-10T06:58:03.440Z,100.00
2023-04-10T07:00:31.665Z,100.00
2023-04-10T07:03:01.144Z,100.00
2023-04-10T07:05:31.163Z,100.00
2023-04-10T07:08:02.181Z,100.00
2023-04-10T07:10:31.605Z,100.00
2023-04-10T07:12:59.838Z,100.00
2023-04-10T07:15:40.685Z,100.00
2023-04-10T07:18:08.634Z,100.00
2023-04-10T07:20:36.906Z,100.00
2023-04-10T07:23:18.859Z,100.00
2023-04-10T07:25:47.296Z,100.00
2023-04-10T07:28:15.433Z,100.00
2023-04-10T07:30:45.316Z,100.00
2023-04-10T07:33:14.871Z,100.00
2023-04-10T07:35:43.055Z,100.00
2023-04-10T07:38:13.189Z,100.00
2023-04-10T07:40:41.698Z,100.00
2023-04-10T07:43:09.630Z,100.00
2023-04-10T07:45:38.900Z,100.00
2023-04-10T07:48:07.051Z,100.00
2023-04-10T07:50:41.751Z,100.00
2023-04-10T07:53:11.027Z,100.00
2023-04-10T07:55:42.358Z,100.00
2023-04-10T07:58:15.337Z,100.00
2023-04-10T08:00:45.627Z,100.00
2023-04-10T08:03:15.057Z,100.00
2023-04-10T08:05:44.526Z,100.00
2023-04-10T08:08:12.472Z,100.00
2023-04-10T08:10:45.706Z,100.00
2023-04-10T08:13:15.713Z,100.00
2023-04-10T08:15:43.752Z,100.00
2023-04-10T08:18:15.775Z,100.00
2023-04-10T08:20:44.313Z,100.00
2023-04-10T08:23:19.938Z,100.00
2023-04-10T08:26:00.627Z,100.00
2023-04-10T08:28:32.578Z,100.00
2023-04-10T08:31:00.713Z,100.00
2023-04-10T08:33:30.160Z,100.00
2023-04-10T08:36:00.236Z,100.00
2023-04-10T08:38:31.845Z,100.00
2023-04-10T08:40:59.725Z,100.00
2023-04-10T08:43:27.725Z,100.00
2023-04-10T08:45:58.701Z,100.00
2023-04-10T08:48:28.144Z,100.00
2023-04-10T08:50:56.311Z,100.00
2023-04-10T08:53:24.217Z,100.00
2023-04-10T08:55:52.191Z,100.00
2023-04-10T08:58:21.535Z,100.00
2023-04-10T09:00:49.638Z,98.06
2023-04-10T09:03:20.496Z,96.75
2023-04-10T09:05:48.649Z,95.53
2023-04-10T09:08:16.636Z,94.78
2023-04-10T09:10:47.493Z,94.76
2023-04-10T09:13:16.444Z,94.96
2023-04-10T09:15:58.011Z,95.14
2023-04-10T09:18:41.841Z,94.38
2023-04-10T09:21:11.121Z,94.40
2023-04-10T09:23:39.850Z,92.61
2023-04-10T09:26:26.304Z,91.08
2023-04-10T09:28:58.388Z,90.12
2023-04-10T09:31:30.182Z,90.12
2023-04-10T09:34:07.805Z,90.15
2023-04-10T09:36:38.272Z,89.90
2023-04-10T09:39:08.890Z,90.53
2023-04-10T09:41:47.907Z,90.72
2023-04-10T09:44:19.290Z,91.07
2023-04-10T09:46:51.705Z,91.80
2023-04-10T09:49:20.790Z,92.10
2023-04-10T09:51:52.885Z,92.47
2023-04-10T09:54:29.525Z,92.33
2023-04-10T09:56:59.721Z,92.01
2023-04-10T09:59:31.375Z,92.16
2023-04-10T10:02:02.713Z,91.57
2023-04-10T10:04:30.935Z,91.07
2023-04-10T10:06:59.228Z,90.81
2023-04-10T10:09:29.975Z,90.31
2023-04-10T10:11:57.978Z,90.52
2023-04-10T10:14:29.269Z,90.20
2023-04-10T10:17:00.523Z,89.92
2023-04-10T10:20:05.801Z,90.33
2023-04-10T10:22:50.156Z,90.69
2023-04-10T10:25:22.405Z,91.18
2023-04-10T10:27:50.475Z,91.11
2023-04-10T10:30:29.654Z,90.77
2023-04-10T10:33:00.429Z,89.13
2023-04-10T10:35:30.790Z,87.80
2023-04-10T10:38:04.311Z,88.23
2023-04-10T10:40:33.871Z,87.56
2023-04-10T10:43:08.448Z,87.26
2023-04-10T10:45:39.842Z,87.80
2023-04-10T10:48:08.842Z,88.12
2023-04-10T10:50:59.774Z,88.26
2023-04-10T10:53:43.448Z,87.18
2023-04-10T10:56:27.579Z,87.37
2023-04-10T10:59:02.842Z,87.65
2023-04-10T11:01:31.813Z,87.93
2023-04-10T11:04:01.802Z,87.45
2023-04-10T11:06:48.706Z,87.28
2023-04-10T11:09:39.899Z,86.16
2023-04-10T11:12:08.173Z,86.21
2023-04-10T11:14:36.748Z,86.46
2023-04-10T11:17:13.566Z,86.65
2023-04-10T11:20:02.594Z,86.54
2023-04-10T11:22:32.715Z,87.08
2023-04-10T11:25:02.024Z,86.93
2023-04-10T11:27:45.690Z,86.32
2023-04-10T11:30:29.489Z,86.28
2023-04-10T11:32:58.089Z,85.91
2023-04-10T11:35:27.187Z,85.15
2023-04-10T11:38:14.632Z,84.79
2023-04-10T11:40:55.904Z,84.07
2023-04-10T11:43:25.622Z,83.44
2023-04-10T11:46:04.689Z,81.63
2023-04-10T11:48:34.931Z,79.70
2023-04-10T11:51:09.659Z,78.04
2023-04-10T11:53:42.853Z,78.05
2023-04-10T11:56:17.675Z,75.86
2023-04-10T11:58:49.648Z,76.25
2023-04-10T12:01:21.581Z,76.66
2023-04-10T12:04:00.947Z,76.62
2023-04-10T12:06:33.689Z,76.34
2023-04-10T12:09:13.441Z,75.60
2023-04-10T12:11:59.790Z,74.37
2023-04-10T12:14:35.661Z,72.93
2023-04-10T12:17:07.708Z,71.08
2023-04-10T12:19:54.024Z,70.30
2023-04-10T12:22:24.667Z,70.11
2023-04-10T12:24:55.688Z,70.23
2023-04-10T12:27:26.777Z,70.24
2023-04-10T12:29:58.359Z,70.03
2023-04-10T12:32:30.859Z,70.16
2023-04-10T12:35:04.561Z,70.16
2023-04-10T12:37:54.726Z,69.66
2023-04-10T12:40:24.758Z,68.65
2023-04-10T12:50:30.122Z,61.58
2023-04-10T12:53:02.401Z,61.79
2023-04-10T12:55:31.352Z,60.97
2023-04-10T12:58:16.655Z,58.91
2023-04-10T13:00:50.751Z,57.09
2023-04-10T13:03:19.810Z,56.03
2023-04-10T13:05:53.471Z,55.44
2023-04-10T13:08:32.774Z,54.78
2023-04-10T13:11:03.916Z,53.92
2023-04-10T13:13:33.891Z,53.61
2023-04-10T13:16:02.103Z,53.07
2023-04-10T13:18:30.291Z,52.06
2023-04-10T13:20:58.249Z,52.13
2023-04-10T13:23:27.463Z,53.52
2023-04-10T13:25:56.923Z,57.69
2023-04-10T13:28:25.883Z,59.57
2023-04-10T13:30:54.007Z,60.99
2023-04-10T13:33:25.023Z,62.33
2023-04-10T13:35:54.009Z,63.36
2023-04-10T13:38:22.394Z,63.53
2023-04-10T13:40:53.634Z,63.18
2023-04-10T13:43:22.200Z,61.65
2023-04-10T13:45:50.635Z,60.90
2023-04-10T13:48:24.393Z,60.60
2023-04-10T13:50:55.616Z,60.20
2023-04-10T13:53:25.611Z,60.29
2023-04-10T13:55:53.640Z,60.61
2023-04-10T13:58:21.989Z,59.60
2023-04-10T14:00:50.438Z,58.44
2023-04-10T14:03:19.645Z,58.38
2023-04-10T14:05:48.612Z,58.40
2023-04-10T14:08:21.063Z,57.24
2023-04-10T14:10:52.841Z,56.30
2023-04-10T14:13:21.293Z,56.97
2023-04-10T14:15:52.161Z,57.02
2023-04-10T14:18:20.503Z,56.26
2023-04-10T14:20:54.023Z,55.68
2023-04-10T14:23:22.769Z,56.19
2023-04-10T14:25:50.765Z,56.15
2023-04-10T14:28:18.978Z,56.16
2023-04-10T14:30:49.416Z,56.12
2023-04-10T14:33:22.352Z,55.45
2023-04-10T14:35:53.098Z,55.32
2023-04-10T14:38:21.260Z,55.99
2023-04-10T14:40:51.993Z,55.55
2023-04-10T14:43:22.235Z,54.92
2023-04-10T14:45:55.354Z,53.97
2023-04-10T14:48:24.347Z,53.22
2023-04-10T14:50:55.648Z,52.82
2023-04-10T14:53:24.392Z,53.00
2023-04-10T14:55:53.204Z,52.87
2023-04-10T14:58:21.451Z,53.47
2023-04-10T15:00:51.639Z,52.94
2023-04-10T15:03:21.144Z,51.51
2023-04-10T15:05:50.541Z,50.75
2023-04-10T15:08:18.517Z,50.99
2023-04-10T15:10:50.195Z,50.05
2023-04-10T15:13:19.455Z,49.15
2023-04-10T15:15:52.011Z,49.91
2023-04-10T15:18:21.118Z,48.96
2023-04-10T15:20:58.639Z,48.77
2023-04-10T15:23:28.499Z,48.66
2023-04-10T15:25:59.622Z,48.96
2023-04-10T15:28:29.776Z,49.28
2023-04-10T15:30:58.093Z,49.49
2023-04-10T15:33:26.778Z,49.68
2023-04-10T15:35:56.101Z,49.78
2023-04-10T15:38:26.283Z,50.21
2023-04-10T15:40:57.849Z,50.88
2023-04-10T15:43:25.990Z,51.00
2023-04-10T15:45:56.934Z,50.84
2023-04-10T15:48:25.382Z,50.88
2023-04-10T15:50:59.773Z,51.34
2023-04-10T15:53:30.072Z,51.76
2023-04-10T15:55:58.440Z,51.85
2023-04-10T15:58:29.760Z,52.05
2023-04-10T16:00:58.079Z,52.34
2023-04-10T16:03:29.915Z,52.50
2023-04-10T16:05:58.874Z,52.72
2023-04-10T16:08:28.053Z,52.99
2023-04-10T16:10:57.083Z,53.27
2023-04-10T16:13:25.087Z,53.50
2023-04-10T16:15:53.246Z,53.70
2023-04-10T16:18:21.226Z,53.95
2023-04-10T16:20:53.262Z,54.16
2023-04-10T16:23:21.293Z,54.63
2023-04-10T16:25:51.616Z,55.09
2023-04-10T16:28:22.935Z,55.83
2023-04-10T16:30:51.102Z,56.15
2023-04-10T16:33:25.342Z,56.39
2023-04-10T16:35:54.110Z,56.55
2023-04-10T16:38:52.217Z,56.94
2023-04-10T16:41:21.169Z,57.06
2023-04-10T16:43:50.022Z,57.30
2023-04-10T16:46:18.794Z,58.01
2023-04-10T16:48:49.634Z,60.03
2023-04-10T16:51:19.892Z,62.15
2023-04-10T16:53:49.809Z,63.92
2023-04-10T16:56:19.809Z,65.59
2023-04-10T17:06:41.966Z,69.08
2023-04-10T17:09:11.760Z,70.02
2023-04-10T17:11:39.637Z,70.34
2023-04-10T17:14:08.395Z,70.26
2023-04-10T17:16:37.193Z,70.26
2023-04-10T17:19:06.278Z,69.23
2023-04-10T17:21:34.946Z,70.01
2023-04-10T17:24:09.831Z,70.30
2023-04-10T17:26:38.327Z,70.30
2023-04-10T17:29:06.730Z,70.69
2023-04-10T17:31:38.081Z,70.72
2023-04-10T17:34:12.372Z,71.14
2023-04-10T17:36:49.428Z,71.59
2023-04-10T17:39:17.508Z,71.54
2023-04-10T17:41:47.028Z,71.36
2023-04-10T17:44:15.507Z,70.99
2023-04-10T17:46:43.609Z,71.07
2023-04-10T17:49:15.122Z,70.38
2023-04-10T17:51:43.370Z,69.98
2023-04-10T17:54:11.773Z,69.95
2023-04-10T17:56:39.878Z,69.70
2023-04-10T17:59:11.198Z,69.34
2023-04-10T18:01:41.339Z,69.00
2023-04-10T18:04:09.804Z,68.74
2023-04-10T18:06:37.959Z,68.61
2023-04-10T18:09:06.566Z,68.41
2023-04-10T18:11:35.475Z,68.37
2023-04-10T18:14:05.302Z,68.36
2023-04-10T18:16:36.319Z,68.38
2023-04-10T18:19:05.275Z,68.55
2023-04-10T18:21:42.018Z,68.64
2023-04-10T18:24:11.201Z,69.03
2023-04-10T18:26:40.692Z,69.22
2023-04-10T18:29:14.193Z,69.32
2023-04-10T18:31:42.281Z,69.44
2023-04-10T18:34:10.643Z,69.79
2023-04-10T18:36:39.068Z,69.92
2023-04-10T18:39:08.457Z,69.83
2023-04-10T18:41:38.462Z,69.72
2023-04-10T18:44:07.275Z,69.66
2023-04-10T18:46:42.789Z,69.98
2023-04-10T18:49:14.570Z,69.91
2023-04-10T18:51:43.358Z,69.85
2023-04-10T18:54:13.768Z,70.09
2023-04-10T18:56:49.157Z,70.29
2023-04-10T18:59:17.358Z,70.43
2023-04-10T19:01:47.579Z,70.33
2023-04-10T19:04:15.885Z,70.75
2023-04-10T19:06:46.370Z,70.68
2023-04-10T19:09:14.741Z,70.86
2023-04-10T19:11:42.963Z,70.72
2023-04-10T19:14:14.867Z,70.77
2023-04-10T19:16:44.410Z,71.02
2023-04-10T19:19:15.693Z,70.96
2023-04-10T19:21:50.560Z,71.09
2023-04-10T19:24:19.315Z,71.15
2023-04-10T19:26:47.722Z,71.41
2023-04-10T19:29:20.283Z,71.66
2023-04-10T19:31:51.404Z,71.69
2023-04-10T19:34:21.099Z,71.75
2023-04-10T19:36:49.235Z,71.85
2023-04-10T19:39:17.242Z,72.21
2023-04-10T19:41:47.136Z,72.47
2023-04-10T19:44:15.320Z,72.44
2023-04-10T19:46:45.530Z,72.50
2023-04-10T19:49:13.745Z,72.55
2023-04-10T19:51:41.624Z,72.65
2023-04-10T19:54:09.750Z,72.70
2023-04-10T19:56:38.391Z,73.01
2023-04-10T19:59:08.082Z,73.26
2023-04-10T20:01:36.460Z,73.42
2023-04-10T20:04:04.956Z,73.73
2023-04-10T20:06:33.220Z,73.83
2023-04-10T20:09:02.010Z,74.11
2023-04-10T20:11:30.608Z,74.35
2023-04-10T20:13:59.913Z,74.27
2023-04-10T20:16:29.576Z,74.28
2023-04-10T20:18:57.596Z,74.20
2023-04-10T20:21:27.740Z,74.23
2023-04-10T20:23:57.697Z,74.14
2023-04-10T20:26:26.020Z,74.14
2023-04-10T20:28:54.614Z,74.15
2023-04-10T20:31:23.324Z,73.99
2023-04-10T20:33:51.363Z,73.86
2023-04-10T20:36:19.283Z,73.86
2023-04-10T20:38:48.772Z,73.91
2023-04-10T20:41:16.957Z,73.87
2023-04-10T20:43:46.127Z,73.94
2023-04-10T20:46:14.343Z,74.14
2023-04-10T20:48:45.870Z,74.26
2023-04-10T20:51:13.709Z,74.29
2023-04-10T20:53:41.586Z,74.50
2023-04-10T20:56:09.723Z,74.62
2023-04-10T20:58:37.690Z,74.73
2023-04-10T21:01:08.201Z,74.66
2023-04-10T21:03:36.669Z,74.65
2023-04-10T21:06:04.920Z,74.84
2023-04-10T21:08:33.432Z,75.08
2023-04-10T21:11:01.881Z,75.24
2023-04-10T21:13:30.631Z,75.44
2023-04-10T21:15:58.481Z,75.84
2023-04-10T21:18:27.360Z,76.09
2023-04-10T21:20:59.519Z,76.31
2023-04-10T21:23:27.621Z,76.42
2023-04-10T21:25:55.904Z,76.57
2023-04-10T21:28:24.932Z,76.50
2023-04-10T21:30:52.843Z,76.48
2023-04-10T21:41:08.774Z,76.33
2023-04-10T21:43:38.510Z,76.35
2023-04-10T21:46:08.098Z,76.45
2023-04-10T21:48:36.161Z,76.74
2023-04-10T21:51:04.141Z,76.68
2023-04-10T21:53:33.271Z,76.85
2023-04-10T21:56:01.181Z,76.78
2023-04-10T21:58:32.312Z,76.59
2023-04-10T22:01:00.902Z,76.61
2023-04-10T22:03:30.966Z,76.62
2023-04-10T22:06:01.809Z,76.56
2023-04-10T22:08:32.486Z,76.88
2023-04-10T22:11:00.538Z,76.86
2023-04-10T22:13:31.512Z,76.85
2023-04-10T22:16:01.910Z,77.07
2023-04-10T22:18:31.443Z,77.01
2023-04-10T22:21:07.285Z,77.05
2023-04-10T22:23:36.979Z,77.28
2023-04-10T22:26:05.352Z,77.30
2023-04-10T22:28:33.439Z,77.34
2023-04-10T22:31:01.700Z,77.12
2023-04-10T22:33:31.702Z,76.85
2023-04-10T22:36:00.513Z,76.79
2023-04-10T22:38:28.547Z,76.80
2023-04-10T22:40:57.826Z,77.00
2023-04-10T22:43:25.709Z,77.04
2023-04-10T22:45:53.737Z,77.36
2023-04-10T22:48:22.019Z,77.42
2023-04-10T22:50:49.907Z,77.60
2023-04-10T22:53:19.121Z,77.56
2023-04-10T22:55:47.419Z,77.76
2023-04-10T22:58:17.952Z,77.87
2023-04-10T23:00:45.811Z,77.99
2023-04-10T23:03:14.034Z,78.28
2023-04-10T23:05:47.060Z,78.31
2023-04-10T23:08:15.403Z,78.52
2023-04-10T23:10:43.602Z,78.67
2023-04-10T23:13:11.804Z,78.99
2023-04-10T23:15:40.846Z,79.12
2023-04-10T23:18:08.823Z,79.25
2023-04-10T23:20:37.295Z,79.56
2023-04-10T23:30:45.877Z,79.95
2023-04-10T23:33:13.806Z,80.06
2023-04-10T23:35:42.494Z,79.97
2023-04-10T23:38:10.720Z,80.25
2023-04-10T23:40:38.875Z,80.21
2023-04-10T23:43:07.188Z,80.24
2023-04-10T23:45:35.089Z,80.57
2023-04-10T23:48:05.504Z,80.61
2023-04-10T23:50:34.305Z,80.62
2023-04-10T23:53:04.068Z,80.27
2023-04-10T23:55:35.676Z,79.74
2023-04-10T23:58:03.905Z,79.50
